Stormwatcher's Retreat Logo




                  Temp     Hi    Low   Out    Dew  Wind  Wind   Wind    Hi    Hi   Wind   Heat    THW   THSW                Rain  Solar   Solar Hi Solar   UV    UV    Hi     Heat    Cool    In     In    In     In     In   In Air          Wind  Wind    ISS   Arc.
  Date    Time     Out   Temp   Temp   Hum    Pt. Speed   Dir    Run Speed   Dir  Chill  Index  Index  Index   Bar    Rain  Rate   Rad.  Energy    Rad.  Index  Dose   UV     D-D     D-D    Temp   Hum    Dew   Heat    EMC Density     ET   Samp   Tx   Recept  Int.
------------------------------------------------------------------------------------------------------------------------------------------------------------------------------------------------------------------------------------------------------------------------
12/05/19 12:10a   48.1   48.4   48.1    67   37.7   0.0   SSE   0.00   2.0   SSE   48.1   47.5   47.5   44.5  29.921  0.00  0.00     0     0.00      0     0.0  0.00   0.0   0.117   0.000   69.0    47   47.9   67.3   8.77  .0742    0.000   210    5    100.0   10 
12/05/19 12:20a   47.4   48.1   47.4    66   36.6   1.0   SSE   0.17   2.0   SSE   47.4   46.7   46.7   43.7  29.919  0.00  0.00     0     0.00      0     0.0  0.00   0.0   0.122   0.000   69.0    47   47.9   67.3   8.77  .0742    0.000   212    5    100.0   10 
12/05/19 12:30a   47.2   47.4   47.2    67   36.8   0.0    SE   0.00   2.0    SE   47.2   46.6   46.6   43.6  29.917  0.00  0.00     0     0.00      0     0.0  0.00   0.0   0.124   0.000   68.9    47   47.8   67.2   8.77  .0742    0.000   210    5    100.0   10 
12/05/19 12:40a   47.7   47.7   47.2    67   37.3   1.0   ESE   0.17   2.0    SE   47.7   47.1   47.1   44.1  29.924  0.00  0.00     0     0.00      0     0.0  0.00   0.0   0.120   0.000   68.9    47   47.8   67.2   8.77  .0742    0.000   210    5    100.0   10 
12/05/19 12:50a   47.3   47.7   47.3    67   36.9   1.0    SE   0.17   2.0    SE   47.3   46.7   46.7   43.7  29.927  0.00  0.00     0     0.00      0     0.0  0.00   0.0   0.123   0.000   68.8    47   47.7   67.1   8.77  .0743    0.000   211    5    100.0   10 
12/05/19  1:00a   47.6   47.6   47.3    67   37.2   1.0    SE   0.17   3.0   ESE   47.6   47.0   47.0   44.0  29.926  0.00  0.00     0     0.00      0     0.0  0.00   0.0   0.121   0.000   68.8    47   47.7   67.1   8.77  .0743    0.001   213    5    100.0   10 
12/05/19  1:10a   47.7   47.7   47.6    67   37.3   1.0    SW   0.17   4.0    SE   47.7   47.1   47.1   44.1  29.929  0.00  0.00     0     0.00      0     0.0  0.00   0.0   0.120   0.000   68.7    47   47.6   67.0   8.78  .0743    0.000   213    5    100.0   10 
12/05/19  1:20a   47.7   47.7   47.6    67   37.3   1.0    SE   0.17   5.0     S   47.7   47.1   47.1   44.1  29.927  0.00  0.00     0     0.00      0     0.0  0.00   0.0   0.120   0.000   68.7    47   47.6   67.0   8.78  .0743    0.000   212    5    100.0   10 
12/05/19  1:30a   47.9   47.9   47.7    67   37.5   1.0    SE   0.17   7.0   ESE   47.9   47.3   47.3   44.3  29.930  0.00  0.00     0     0.00      0     0.0  0.00   0.0   0.119   0.000   68.7    47   47.6   67.0   8.78  .0743    0.000   212    5    100.0   10 
12/05/19  1:40a   47.8   48.0   47.8    67   37.4   1.0    SE   0.17   4.0     S   47.8   47.2   47.2   44.2  29.936  0.00  0.00     0     0.00      0     0.0  0.00   0.0   0.119   0.000   68.8    47   47.7   67.1   8.77  .0743    0.000   212    5    100.0   10 
12/05/19  1:50a   47.9   48.0   47.8    67   37.5   2.0     S   0.33   7.0    SE   47.9   47.3   47.3   44.3  29.938  0.00  0.00     0     0.00      0     0.0  0.00   0.0   0.119   0.000   68.8    47   47.7   67.1   8.77  .0743    0.000   213    5    100.0   10 
12/05/19  2:00a   47.7   48.0   47.7    67   37.3   1.0    SE   0.17   2.0    SE   47.7   47.1   47.1   44.1  29.939  0.00  0.00     0     0.00      0     0.0  0.00   0.0   0.120   0.000   68.8    47   47.7   67.1   8.77  .0743    0.001   211    5    100.0   10 
12/05/19  2:10a   47.7   47.7   47.6    67   37.3   1.0   SSW   0.17   2.0    SE   47.7   47.1   47.1   44.1  29.939  0.00  0.00     0     0.00      0     0.0  0.00   0.0   0.120   0.000   68.7    47   47.6   67.0   8.78  .0743    0.000   211    5    100.0   10 
12/05/19  2:20a   47.9   47.9   47.7    67   37.5   1.0    SE   0.17   5.0   SSE   47.9   47.3   47.3   44.3  29.940  0.00  0.00     0     0.00      0     0.0  0.00   0.0   0.119   0.000   68.7    47   47.6   67.0   8.78  .0743    0.000   210    5    100.0   10 
12/05/19  2:30a   48.2   48.2   47.9    67   37.8   3.0   ESE   0.50   9.0   ESE   47.6   47.6   47.0   44.0  29.939  0.00  0.00     0     0.00      0     0.0  0.00   0.0   0.117   0.000   68.6    47   47.6   66.9   8.78  .0743    0.000   210    5    100.0   10 
12/05/19  2:40a   48.4   48.4   48.2    67   37.9   3.0   ESE   0.50   8.0    SE   47.8   47.8   47.2   44.2  29.939  0.00  0.00     0     0.00      0     0.0  0.00   0.0   0.115   0.000   68.6    47   47.6   66.9   8.78  .0743    0.000   211    5    100.0   10 
12/05/19  2:50a   48.7   48.7   48.4    67   38.2   3.0   ESE   0.50   8.0   ESE   48.2   48.2   47.7   44.7  29.939  0.00  0.00     0     0.00      0     0.0  0.00   0.0   0.113   0.000   68.5    47   47.5   66.8   8.78  .0744    0.000   213    5    100.0   10 
12/05/19  3:00a   49.0   49.0   48.6    67   38.5   2.0   ESE   0.33   8.0     E   49.0   48.5   48.5   45.5  29.936  0.00  0.00     0     0.00      0     0.0  0.00   0.0   0.111   0.000   68.5    47   47.5   66.8   8.78  .0743    0.001   214    5    100.0   10 
12/05/19  3:10a   49.3   49.3   49.0    67   38.8   2.0   ESE   0.33   6.0   SSE   49.3   48.8   48.8   45.8  29.935  0.00  0.00     0     0.00      0     0.0  0.00   0.0   0.109   0.000   68.4    47   47.4   66.8   8.78  .0744    0.000   212    5    100.0   10 
12/05/19  3:20a   49.6   49.6   49.3    66   38.7   1.0   WNW   0.17   5.0   ENE   49.6   49.0   49.0   46.0  29.938  0.00  0.00     0     0.00      0     0.0  0.00   0.0   0.107   0.000   68.5    47   47.5   66.8   8.78  .0744    0.000   210    5    100.0   10 
12/05/19  3:30a   49.6   49.6   49.5    66   38.7   2.0     E   0.33   6.0   ESE   49.6   49.0   49.0   46.0  29.935  0.00  0.00     0     0.00      0     0.0  0.00   0.0   0.107   0.000   68.6    47   47.6   66.9   8.78  .0743    0.000   211    5    100.0   10 
12/05/19  3:40a   49.4   49.6   49.4    65   38.1   1.0    SE   0.17   3.0   SSW   49.4   48.8   48.8   45.8  29.936  0.00  0.00     0     0.00      0     0.0  0.00   0.0   0.108   0.000   68.6    47   47.6   66.9   8.78  .0743    0.000   213    5    100.0   10 
12/05/19  3:50a   49.3   49.3   49.2    65   38.0   1.0     S   0.17   5.0   SSW   49.3   48.7   48.7   45.7  29.933  0.00  0.00     0     0.00      0     0.0  0.00   0.0   0.109   0.000   68.5    47   47.5   66.8   8.78  .0743    0.000   211    5    100.0   10 
12/05/19  4:00a   48.9   49.3   48.9    65   37.6   2.0   SSW   0.33   5.0   SSW   48.9   48.3   48.3   45.3  29.935  0.00  0.00     0     0.00      0     0.0  0.00   0.0   0.112   0.000   68.5    47   47.5   66.8   8.78  .0743    0.001   212    5    100.0   10 
12/05/19  4:10a   48.8   48.9   48.8    64   37.2   2.0   SSW   0.33   5.0     S   48.8   48.1   48.1   45.1  29.935  0.00  0.00     0     0.00      0     0.0  0.00   0.0   0.113   0.000   68.4    47   47.4   66.8   8.78  .0744    0.000   212    5    100.0   10 
12/05/19  4:20a   49.2   49.2   48.8    65   37.9   1.0     S   0.17   4.0    SW   49.2   48.6   48.6   45.6  29.933  0.00  0.00     0     0.00      0     0.0  0.00   0.0   0.110   0.000   68.4    46   46.8   66.7   8.65  .0744    0.000   210    5    100.0   10 
12/05/19  4:30a   49.9   49.9   49.2    65   38.6   1.0   SSW   0.17   4.0   SSW   49.9   49.3   49.3   46.3  29.934  0.00  0.00     0     0.00      0     0.0  0.00   0.0   0.105   0.000   68.3    46   46.7   66.6   8.65  .0744    0.000   210    5    100.0   10 
12/05/19  4:40a   50.1   50.3   49.9    64   38.4   3.0   SSW   0.50   7.0   ESE   49.8   49.5   49.2   46.2  29.938  0.00  0.00     0     0.00      0     0.0  0.00   0.0   0.103   0.000   68.3    46   46.7   66.6   8.65  .0744    0.000   209    5    100.0   10 
12/05/19  4:50a   50.2   50.3   50.1    64   38.5   2.0     S   0.33   6.0   ESE   50.2   49.5   49.5   46.5  29.938  0.00  0.00     0     0.00      0     0.0  0.00   0.0   0.103   0.000   68.2    47   47.2   66.6   8.79  .0744    0.000   212    5    100.0   10 
12/05/19  5:00a   50.7   50.7   50.2    64   39.0   2.0    SE   0.33   8.0    SE   50.7   50.0   50.0   47.0  29.941  0.00  0.00     0     0.00      0     0.0  0.00   0.0   0.099   0.000   68.3    47   47.3   66.7   8.78  .0744    0.001   212    5    100.0   10 
12/05/19  5:10a   50.6   50.9   50.6    63   38.5   2.0     S   0.33   4.0     S   50.6   49.9   49.9   46.9  29.943  0.00  0.00     0     0.00      0     0.0  0.00   0.0   0.100   0.000   68.4    47   47.4   66.8   8.78  .0744    0.000   209    5    100.0   10 
12/05/19  5:20a   50.0   50.6   49.9    63   37.9   2.0   SSW   0.33   7.0    SE   50.0   49.3   49.3   46.3  29.945  0.00  0.00     0     0.00      0     0.0  0.00   0.0   0.104   0.000   68.4    46   46.8   66.7   8.65  .0744    0.000   211    5    100.0   10 
12/05/19  5:30a   49.9   50.0   49.7    63   37.8   2.0     S   0.33   6.0   SSE   49.9   49.2   49.2   46.2  29.950  0.00  0.00     0     0.00      0     0.0  0.00   0.0   0.105   0.000   68.4    46   46.8   66.7   8.65  .0744    0.000   212    5    100.0   10 
12/05/19  5:40a   49.4   50.0   49.4    63   37.3   4.0   SSW   0.67  11.0   SSE   48.2   48.7   47.5   44.5  29.953  0.00  0.00     0     0.00      0     0.0  0.00   0.0   0.108   0.000   68.3    46   46.7   66.6   8.65  .0744    0.000   212    5    100.0   10 
12/05/19  5:50a   49.1   49.4   48.7    64   37.4   4.0   SSW   0.67   9.0   SSW   47.8   48.5   47.2   44.2  29.959  0.00  0.00     0     0.00      0     0.0  0.00   0.0   0.110   0.000   68.3    46   46.7   66.6   8.65  .0745    0.000   212    5    100.0   10 
12/05/19  6:00a   48.3   49.1   48.1    64   36.7   3.0     S   0.50   8.0    SW   47.7   47.6   47.0   44.0  29.962  0.00  0.00     0     0.00      0     0.0  0.00   0.0   0.116   0.000   68.2    46   46.6   66.5   8.65  .0745    0.002   213    5    100.0   10 
12/05/19  6:10a   48.0   48.3   47.8    64   36.4   4.0   SSW   0.67  11.0     E   46.6   47.3   45.9   42.9  29.965  0.00  0.00     0     0.00      0     0.0  0.00   0.0   0.118   0.000   68.2    46   46.6   66.5   8.65  .0745    0.000   211    5    100.0   10 
12/05/19  6:20a   48.8   48.8   48.0    65   37.6   4.0   SSW   0.67  10.0   SSW   47.5   48.2   46.9   43.9  29.967  0.00  0.00     0     0.00      0     0.0  0.00   0.0   0.113   0.000   68.1    46   46.5   66.4   8.65  .0745    0.000   211    5    100.0   10 
12/05/19  6:30a   48.5   48.8   48.1    65   37.3   4.0   SSW   0.67  10.0   SSW   47.2   47.8   46.5   43.5  29.972  0.00  0.00     0     0.00      0     0.0  0.00   0.0   0.115   0.000   68.2    46   46.6   66.5   8.65  .0745    0.000   211    5    100.0   10 
12/05/19  6:40a   49.0   49.6   48.3    66   38.1   6.0   SSW   1.00  15.0     S   46.5   48.4   45.9   42.9  29.975  0.00  0.00     0     0.00      0     0.0  0.00   0.0   0.111   0.000   68.2    46   46.6   66.5   8.65  .0745    0.000   212    5    100.0   10 
12/05/19  6:50a   48.2   49.0   48.2    65   37.0   3.0   SSW   0.50   8.0     S   47.6   47.5   46.9   43.9  29.973  0.00  0.00     0     0.00      0     0.0  0.00   0.0   0.117   0.000   68.3    46   46.7   66.6   8.65  .0745    0.000   212    5    100.0   10 
12/05/19  7:00a   48.4   48.5   48.1    66   37.6   1.0   SSW   0.17   4.0    SE   48.4   47.8   47.8   44.8  29.975  0.00  0.00     0     0.00      0     0.0  0.00   0.0   0.115   0.000   68.3    46   46.7   66.6   8.65  .0745    0.001   213    5    100.0   10 
12/05/19  7:10a   48.2   48.4   48.1    66   37.4   2.0   SSW   0.33   7.0   SSW   48.2   47.6   47.6   44.6  29.976  0.00  0.00     0     0.00      0     0.0  0.00   0.0   0.117   0.000   68.2    46   46.6   66.5   8.65  .0745    0.000   213    5    100.0   10 
12/05/19  7:20a   47.8   48.2   47.8    65   36.6   1.0    SE   0.17   6.0   ESE   47.8   47.1   47.1   44.1  29.982  0.00  0.00     0     0.00      0     0.0  0.00   0.0   0.119   0.000   68.2    46   46.6   66.5   8.65  .0745    0.000   212    5    100.0   10 
12/05/19  7:30a   46.9   47.8   46.9    65   35.7   2.0   SSE   0.33   5.0   SSE   46.9   46.2   46.2   43.1  29.981  0.00  0.00     0     0.00      0     0.0  0.00   0.0   0.126   0.000   68.2    46   46.6   66.5   8.65  .0745    0.000   211    5    100.0   10 
12/05/19  7:40a   46.7   46.9   46.6    66   35.9   1.0   SSE   0.17   5.0   SSE   46.7   46.0   46.0   43.0  29.984  0.00  0.00     1     0.01      5     0.0  0.00   0.0   0.127   0.000   68.1    46   46.5   66.4   8.65  .0746    0.000   212    5    100.0   10 
12/05/19  7:50a   46.9   46.9   46.7    66   36.1   1.0     S   0.17   4.0     E   46.9   46.2   46.2   43.3  29.989  0.00  0.00     6     0.09      7     0.0  0.00   0.0   0.126   0.000   68.0    46   46.4   66.3   8.65  .0746    0.000   212    5    100.0   10 
12/05/19  8:00a   47.0   47.1   46.9    66   36.2   1.0    SE   0.17   3.0    SE   47.0   46.3   46.3   43.5  29.993  0.00  0.00    10     0.14     12     0.0  0.00   0.0   0.125   0.000   68.1    46   46.5   66.4   8.65  .0746    0.001   211    5    100.0   10 
12/05/19  8:10a   46.7   47.0   46.7    66   35.9   2.0   SSE   0.33   4.0    SE   46.7   46.0   46.0   43.3  29.998  0.00  0.00    14     0.20     16     0.0  0.00   0.0   0.127   0.000   68.2    46   46.6   66.5   8.65  .0746    0.000   211    5    100.0   10 
12/05/19  8:20a   46.4   46.7   46.4    66   35.7   2.0   SSE   0.33   5.0   SSE   46.4   45.7   45.7   43.1  30.010  0.00  0.00    18     0.26     21     0.0  0.00   0.0   0.129   0.000   68.2    46   46.6   66.5   8.65  .0746    0.000   208    5    100.0   10 
12/05/19  8:30a   47.1   47.1   46.3    66   36.3   2.0   SSE   0.33   6.0   ESE   47.1   46.4   46.4   44.1  30.011  0.00  0.00    29     0.42     33     0.0  0.00   0.0   0.124   0.000   68.2    46   46.6   66.5   8.65  .0746    0.000   211    5    100.0   10 
12/05/19  8:40a   47.9   48.0   47.1    67   37.5   1.0   SSE   0.17   5.0   SSE   47.9   47.3   47.3   45.2  30.015  0.00  0.00    37     0.53     39     0.0  0.00   0.0   0.119   0.000   68.2    46   46.6   66.5   8.65  .0746    0.000   212    5    100.0   10 
12/05/19  8:50a   48.5   48.5   47.9    67   38.0   2.0     S   0.33   7.0   ESE   48.5   47.9   47.9   45.7  30.012  0.00  0.00    32     0.46     35     0.0  0.00   0.0   0.115   0.000   68.2    46   46.6   66.5   8.65  .0746    0.000   211    5    100.0   10 
12/05/19  9:00a   48.7   48.7   48.5    66   37.8   2.0     S   0.33   5.0   SSE   48.7   48.1   48.1   48.1  30.014  0.00  0.00    52     0.75     79     0.0  0.00   0.0   0.113   0.000   68.2    46   46.6   66.5   8.65  .0746    0.001   213    5    100.0   10 
12/05/19  9:10a   49.1   49.1   48.7    67   38.6   2.0   SSW   0.33   6.0     S   49.1   48.6   48.6   50.1  30.019  0.00  0.00    87     1.25    104     0.0  0.00   0.0   0.110   0.000   68.1    46   46.5   66.4   8.65  .0746    0.000   212    5    100.0   10 
12/05/19  9:20a   49.1   49.1   48.7    66   38.2   2.0   ESE   0.33   5.0    SW   49.1   48.5   48.5   49.3  30.019  0.00  0.00    69     0.99     95     0.0  0.00   0.0   0.110   0.000   68.1    46   46.5   66.4   8.65  .0746    0.000   212    5    100.0   10 
12/05/19  9:30a   49.6   49.6   49.1    66   38.7   1.0     S   0.17   3.0     S   49.6   49.0   49.0   51.3  30.026  0.00  0.00   109     1.56    197     0.0  0.00   0.0   0.107   0.000   68.1    46   46.5   66.4   8.65  .0747    0.000   214    5    100.0   10 
12/05/19  9:40a   49.5   50.0   49.5    66   38.6   2.0   SSW   0.33   5.0    SE   49.5   48.9   48.9   51.1  30.036  0.00  0.00   106     1.52    113     0.0  0.00   0.0   0.108   0.000   68.2    46   46.6   66.5   8.65  .0747    0.000   213    5    100.0   10 
12/05/19  9:50a   48.7   49.4   48.5    65   37.5   2.0   ESE   0.33   4.0    SE   48.7   48.1   48.1   50.4  30.042  0.00  0.00   113     1.62    135     0.0  0.00   0.0   0.113   0.000   68.3    46   46.7   66.6   8.65  .0747    0.000   212    5    100.0   10 
12/05/19 10:00a   49.2   49.2   48.7    66   38.3   2.0   SSW   0.33   5.0     S   49.2   48.6   48.6   50.9  30.045  0.00  0.00   114     1.63    139     0.0  0.00   0.0   0.110   0.000   68.3    46   46.7   66.6   8.65  .0747    0.002   213    5    100.0   10 
12/05/19 10:10a   50.4   50.4   49.2    66   39.5   3.0   SSW   0.50   7.0     S   50.1   49.8   49.5   51.0  30.044  0.00  0.00    94     1.35    120     0.0  0.00   0.0   0.101   0.000   68.3    46   46.7   66.6   8.65  .0747    0.000   213    5    100.0   10 
12/05/19 10:20a   51.6   51.6   50.4    66   40.6   3.0     S   0.50   7.0   SSW   51.5   50.9   50.8   52.0  30.041  0.00  0.00    87     1.25    107     0.0  0.00   0.0   0.093   0.000   68.2    46   46.6   66.5   8.65  .0747    0.000   213    5    100.0   10 
12/05/19 10:30a   52.1   52.1   51.6    65   40.7   2.0     S   0.33   5.0   SSW   52.1   51.3   51.3   54.1  30.041  0.00  0.00   131     1.88    155     0.0  0.00   0.0   0.090   0.000   68.2    46   46.6   66.5   8.65  .0747    0.000   212    5    100.0   10 
12/05/19 10:40a   52.7   52.8   52.1    65   41.3   3.0   SSW   0.50   9.0     S   52.7   51.8   51.8   56.2  30.038  0.00  0.00   179     2.57    225     0.0  0.00   0.0   0.085   0.000   68.2    46   46.6   66.5   8.65  .0747    0.000   213    5    100.0   10 
12/05/19 10:50a   53.7   53.7   52.7    65   42.2   3.0   SSW   0.50   6.0   SSW   53.7   52.7   52.7   60.7  30.032  0.00  0.00   329     4.72    432     0.0  0.00   0.0   0.078   0.000   68.2    46   46.6   66.5   8.65  .0747    0.000   213    5    100.0   10 
12/05/19 11:00a   53.9   53.9   53.7    64   42.0   7.0   SSW   1.17  15.0   SSW   51.9   52.9   50.9   58.6  30.029  0.00  0.00   318     4.56    533     0.0  0.00   0.0   0.077   0.000   68.3    46   46.7   66.6   8.65  .0746    0.005   213    5    100.0   10 
12/05/19 11:10a   53.8   53.9   53.7    64   41.9   9.0   SSW   1.50  14.0     S   50.4   52.8   49.4   55.1  30.025  0.00  0.00   249     3.57    287     0.0  0.00   0.0   0.078   0.000   68.4    46   46.8   66.7   8.65  .0746    0.000   212    5    100.0   10 
12/05/19 11:20a   53.4   53.8   53.3    64   41.5   8.0   SSW   1.33  15.0   SSE   50.6   52.4   49.6   54.3  30.024  0.00  0.00   209     3.00    315     0.0  0.00   0.0   0.081   0.000   68.5    46   46.9   66.8   8.65  .0746    0.000   213    5    100.0   10 
12/05/19 11:30a   53.6   53.6   53.4    64   41.7   2.0   SSW   0.33   8.0     S   53.6   52.6   52.6   55.6  30.021  0.00  0.00   146     2.09    221     0.0  0.00   0.0   0.079   0.000   68.6    46   47.0   66.8   8.65  .0746    0.000   210    5    100.0   10 
12/05/19 11:40a   54.1   54.1   53.5    64   42.2   2.0     S   0.33   6.0   SSW   54.1   53.1   53.1   60.1  30.013  0.00  0.00   282     4.04    478     0.0  0.00   0.0   0.076   0.000   68.6    46   47.0   66.8   8.65  .0745    0.000   213    5    100.0   10 
12/05/19 11:50a   55.8   55.8   54.2    64   43.8   3.0   ESE   0.50   8.0    SE   55.8   54.7   54.7   62.5  30.007  0.00  0.00   317     4.54    434     0.0  0.00   0.0   0.064   0.000   68.6    46   47.0   66.8   8.65  .0745    0.000   214    5    100.0   10 
12/05/19 12:00p   56.9   56.9   55.8    61   43.6   5.0   ESE   0.83  10.0    SE   56.3   55.7   55.1   63.8  30.003  0.00  0.00   366     5.25    385     0.0  0.00   0.0   0.056   0.000   68.6    46   47.0   66.8   8.65  .0745    0.007   212    5    100.0   10 
12/05/19 12:10p   58.4   58.4   56.9    59   44.1   3.0   ESE   0.50   9.0    SE   58.4   57.0   57.0   65.7  30.001  0.00  0.00   367     5.26    369     0.0  0.00   0.0   0.046   0.000   68.7    46   47.1   66.9   8.65  .0745    0.000   212    5    100.0   10 
12/05/19 12:20p   59.3   59.3   58.5    56   43.6   3.0   ESE   0.50   8.0   ESE   59.3   57.8   57.8   66.4  30.004  0.00  0.00   364     5.22    367     0.0  0.00   0.0   0.040   0.000   68.6    46   47.0   66.8   8.65  .0745    0.000   214    5    100.0   10 
12/05/19 12:30p   59.5   59.6   59.3    52   41.9   4.0   ESE   0.67  10.0    SE   59.5   57.7   57.7   66.3  30.001  0.00  0.00   366     5.25    371     0.0  0.00   0.0   0.038   0.000   68.7    46   47.1   66.9   8.65  .0745    0.000   213    5    100.0   10 
12/05/19 12:40p   59.4   59.8   59.4    50   40.7   4.0   ESE   0.67  10.0   ESE   59.4   57.4   57.4   62.3  29.996  0.00  0.00   213     3.05    385     0.0  0.00   0.0   0.039   0.000   68.7    47   47.6   67.0   8.78  .0745    0.000   211    5    100.0   10 
12/05/19 12:50p   59.4   59.4   59.1    51   41.3   2.0   ESE   0.33   8.0   ESE   59.4   57.5   57.5   63.3  29.995  0.00  0.00   240     3.44    355     0.0  0.00   0.0   0.039   0.000   68.8    47   47.7   67.1   8.77  .0744    0.000   213    5    100.0   10 
12/05/19  1:00p   59.6   59.6   59.4    50   40.9   1.0    SE   0.17   6.0   ESE   59.6   57.6   57.6   61.8  29.990  0.00  0.00   190     2.72    297     0.0  0.00   0.0   0.038   0.000   68.8    47   47.7   67.1   8.77  .0744    0.007   211    5    100.0   10 
12/05/19  1:10p   60.0   60.0   59.6    50   41.3   1.0   ESE   0.17   3.0    SE   60.0   58.0   58.0   64.8  29.987  0.00  0.00   275     3.94    360     0.0  0.00   0.0   0.035   0.000   69.0    47   47.9   67.3   8.77  .0744    0.000   208    5    100.0   10 
12/05/19  1:20p   60.1   60.3   60.0    49   40.9   2.0   ESE   0.33   4.0   SSE   60.1   58.0   58.0   61.7  29.983  0.00  0.00   171     2.45    237     0.0  0.00   0.0   0.034   0.000   69.1    47   48.0   67.4   8.77  .0744    0.000   214    5    100.0   10 
12/05/19  1:30p   59.8   60.1   59.8    49   40.6   2.0   ENE   0.33   3.0   SSE   59.8   57.7   57.7   61.5  29.980  0.00  0.00   174     2.49    200     0.0  0.00   0.0   0.036   0.000   69.1    47   48.0   67.4   8.77  .0744    0.000   213    5    100.0   10 
12/05/19  1:40p   60.1   60.1   59.6    51   41.9   2.0   ENE   0.33   5.0   ENE   60.1   58.2   58.2   65.2  29.977  0.00  0.00   277     3.97    385     0.0  0.00   0.0   0.034   0.000   69.1    47   48.0   67.4   8.77  .0743    0.000   211    5    100.0   10 
12/05/19  1:50p   61.4   61.4   60.1    50   42.6   1.0   ESE   0.17   4.0    SE   61.4   59.4   59.4   67.4  29.973  0.00  0.00   318     4.56    369     0.0  0.00   0.0   0.025   0.000   69.1    46   47.4   67.3   8.65  .0744    0.000   213    5    100.0   10 
12/05/19  2:00p   62.6   62.6   61.4    49   43.2   1.0   ESE   0.17   4.0   ESE   62.6   60.6   60.6   68.4  29.971  0.00  0.00   304     4.36    315     0.0  0.00   0.0   0.017   0.000   69.2    47   48.1   67.4   8.77  .0743    0.006   213    5    100.0   10 
12/05/19  2:10p   63.5   63.6   62.6    47   42.9   1.0     E   0.17   3.0     E   63.5   61.4   61.4   68.9  29.966  0.00  0.00   293     4.20    301     0.0  0.00   0.0   0.010   0.000   69.2    47   48.1   67.4   8.77  .0743    0.000   210    5    100.0   10 
12/05/19  2:20p   64.1   64.1   63.4    47   43.4   2.0    NE   0.33   4.0     E   64.1   62.1   62.1   69.5  29.961  0.00  0.00   281     4.03    299     0.0  0.00   0.0   0.006   0.000   69.2    47   48.1   67.4   8.77  .0743    0.000   210    5    100.0   10 
12/05/19  2:30p   64.0   64.2   64.0    45   42.2   3.0     E   0.50   8.0   ESE   64.0   61.8   61.8   68.3  29.959  0.00  0.00   242     3.47    267     0.0  0.00   0.0   0.007   0.000   69.3    47   48.2   67.5   8.76  .0743    0.000   212    5    100.0   10 
12/05/19  2:40p   63.3   64.0   63.3    44   41.0   5.0     E   0.83  12.0   ENE   63.3   60.9   60.9   67.3  29.954  0.00  0.00   238     3.41    262     0.0  0.00   0.0   0.012   0.000   69.3    47   48.2   67.5   8.76  .0743    0.000   213    5    100.0   10 
12/05/19  2:50p   62.7   63.3   62.7    44   40.5   4.0   ENE   0.67  11.0     E   62.7   60.3   60.3   65.1  29.951  0.00  0.00   186     2.67    223     0.0  0.00   0.0   0.016   0.000   69.4    47   48.3   67.6   8.76  .0742    0.000   211    5    100.0   10 
12/05/19  3:00p   62.0   62.7   62.0    44   39.8   4.0   ESE   0.67   9.0    SE   62.0   59.6   59.6   63.5  29.946  0.00  0.00   158     2.26    185     0.0  0.00   0.0   0.021   0.000   69.4    47   48.3   67.6   8.76  .0742    0.007   213    5    100.0   10 
12/05/19  3:10p   61.3   62.0   61.3    46   40.3   5.0   ESE   0.83  11.0   ESE   61.3   59.1   59.1   62.3  29.943  0.00  0.00   133     1.91    149     0.0  0.00   0.0   0.026   0.000   69.5    47   48.4   67.6   8.76  .0742    0.000   210    5    100.0   10 
12/05/19  3:20p   60.4   61.3   60.4    47   40.1   5.0   ESE   0.83  10.0    SE   60.4   58.2   58.2   59.9  29.944  0.00  0.00    91     1.30    109     0.0  0.00   0.0   0.032   0.000   69.5    47   48.4   67.6   8.76  .0742    0.000   213    5    100.0   10 
12/05/19  3:30p   59.8   60.4   59.8    48   40.1   5.0   ESE   0.83  12.0    SE   59.8   57.7   57.7   59.0  29.943  0.00  0.00    80     1.15     83     0.0  0.00   0.0   0.036   0.000   69.6    47   48.5   67.7   8.76  .0742    0.000   212    5    100.0   10 
12/05/19  3:40p   59.5   59.8   59.5    49   40.3   5.0   ESE   0.83  13.0   ESE   59.4   57.4   57.3   58.3  29.943  0.00  0.00    73     1.05     76     0.0  0.00   0.0   0.038   0.000   69.6    47   48.5   67.7   8.76  .0742    0.000   212    5    100.0   10 
12/05/19  3:50p   59.1   59.5   59.1    50   40.5   5.0   ESE   0.83  10.0   ESE   58.9   57.1   56.9   57.2  29.941  0.00  0.00    57     0.82     63     0.0  0.00   0.0   0.041   0.000   69.6    47   48.5   67.7   8.76  .0742    0.000   212    5    100.0   10 
12/05/19  4:00p   58.8   59.1   58.8    50   40.2   5.0   ESE   0.83  10.0   ESE   58.6   56.8   56.6   56.5  29.940  0.00  0.00    46     0.66     51     0.0  0.00   0.0   0.043   0.000   69.6    48   49.0   67.8   8.86  .0742    0.004   209    5    100.0   10 
12/05/19  4:10p   58.4   58.8   58.4    51   40.3   4.0   ESE   0.67  11.0   ESE   58.4   56.5   56.5   54.2  29.936  0.00  0.00    32     0.46     39     0.0  0.00   0.0   0.046   0.000   69.6    48   49.0   67.8   8.86  .0741    0.000   213    5    100.0   10 
12/05/19  4:20p   58.0   58.4   58.0    51   40.0   4.0   ESE   0.67  10.0   ESE   58.0   56.1   56.1   53.5  29.934  0.00  0.00    20     0.29     25     0.0  0.00   0.0   0.049   0.000   69.6    48   49.0   67.8   8.86  .0741    0.000   214    5    100.0   10 
12/05/19  4:30p   57.7   58.0   57.7    52   40.2   4.0   ESE   0.67  12.0   ESE   57.7   55.9   55.9   53.1  29.935  0.00  0.00    10     0.14     14     0.0  0.00   0.0   0.051   0.000   69.6    48   49.0   67.8   8.86  .0741    0.000   209    5    100.0   10 
12/05/19  4:40p   57.4   57.7   57.4    52   39.9   3.0   ESE   0.50   7.0     E   57.4   55.6   55.6   52.6  29.931  0.00  0.00     2     0.03      5     0.0  0.00   0.0   0.053   0.000   69.6    48   49.0   67.8   8.86  .0741    0.000   213    5    100.0   10 
12/05/19  4:50p   57.1   57.4   57.1    53   40.1   4.0   ESE   0.67  10.0   ESE   57.1   55.4   55.4   52.4  29.932  0.00  0.00     0     0.00      0     0.0  0.00   0.0   0.055   0.000   69.6    48   49.0   67.8   8.86  .0741    0.000   213    5    100.0   10 
12/05/19  5:00p   56.9   57.1   56.9    53   39.9   4.0   ESE   0.67  10.0   ESE   56.9   55.2   55.2   52.1  29.927  0.00  0.00     0     0.00      0     0.0  0.00   0.0   0.056   0.000   69.7    48   49.1   67.9   8.86  .0741    0.002   212    5    100.0   10 
12/05/19  5:10p   56.9   56.9   56.8    54   40.4   5.0   ESE   0.83   9.0   ESE   56.3   55.2   54.6   51.6  29.926  0.00  0.00     0     0.00      0     0.0  0.00   0.0   0.056   0.000   69.7    48   49.1   67.9   8.86  .0741    0.000   212    5    100.0   10 
12/05/19  5:20p   56.8   56.9   56.8    54   40.3   5.0   ESE   0.83   9.0   ESE   56.2   55.1   54.5   51.5  29.925  0.00  0.00     0     0.00      0     0.0  0.00   0.0   0.057   0.000   69.7    48   49.1   67.9   8.86  .0741    0.000   212    5    100.0   10 
12/05/19  5:30p   56.8   56.8   56.8    54   40.3   4.0   ESE   0.67   9.0   ESE   56.8   55.1   55.1   52.1  29.926  0.00  0.00     0     0.00      0     0.0  0.00   0.0   0.057   0.000   69.8    49   49.8   68.1   9.05  .0741    0.000   212    5    100.0   10 
12/05/19  5:40p   56.5   56.8   56.5    54   40.0   3.0   ESE   0.50   7.0   ESE   56.5   54.8   54.8   51.8  29.925  0.00  0.00     0     0.00      0     0.0  0.00   0.0   0.059   0.000   69.8    48   49.2   68.0   8.85  .0741    0.000   212    5    100.0   10 
12/05/19  5:50p   55.5   56.5   55.5    54   39.1   2.0     S   0.33   6.0   ESE   55.5   53.9   53.9   50.8  29.931  0.00  0.00     0     0.00      0     0.0  0.00   0.0   0.066   0.000   69.9    49   49.9   68.1   9.05  .0741    0.000   213    5    100.0   10 
12/05/19  6:00p   55.0   55.5   55.0    56   39.6   2.0     S   0.33   6.0   SSE   55.0   53.5   53.5   50.4  29.932  0.00  0.00     0     0.00      0     0.0  0.00   0.0   0.069   0.000   69.9    49   49.9   68.1   9.05  .0741    0.002   212    5    100.0   10 
12/05/19  6:10p   55.1   55.1   55.0    57   40.1   3.0   SSE   0.50   7.0   ESE   55.1   53.7   53.7   50.7  29.927  0.00  0.00     0     0.00      0     0.0  0.00   0.0   0.069   0.000   69.9    49   49.9   68.1   9.05  .0741    0.000   212    5    100.0   10 
12/05/19  6:20p   55.2   55.2   55.0    57   40.2   2.0    SE   0.33   9.0   ESE   55.2   53.8   53.8   50.8  29.928  0.00  0.00     0     0.00      0     0.0  0.00   0.0   0.068   0.000   69.9    49   49.9   68.1   9.05  .0741    0.000   214    5    100.0   10 
12/05/19  6:30p   54.8   55.2   54.8    57   39.8   3.0   ESE   0.50   7.0   ESE   54.8   53.4   53.4   50.3  29.929  0.00  0.00     0     0.00      0     0.0  0.00   0.0   0.071   0.000   69.9    49   49.9   68.1   9.05  .0741    0.000   211    5    100.0   10 
12/05/19  6:40p   54.8   54.8   54.6    58   40.3   5.0   ESE   0.83   9.0   ESE   53.9   53.4   52.5   49.5  29.925  0.00  0.00     0     0.00      0     0.0  0.00   0.0   0.071   0.000   69.9    48   49.3   68.0   8.85  .0741    0.000   212    5    100.0   10 
12/05/19  6:50p   54.8   54.9   54.8    58   40.3   4.0   ESE   0.67   8.0   ESE   54.4   53.4   53.0   50.0  29.919  0.00  0.00     0     0.00      0     0.0  0.00   0.0   0.071   0.000   69.9    48   49.3   68.0   8.85  .0740    0.000   213    5    100.0   10 
12/05/19  7:00p   54.7   54.9   54.7    58   40.2   3.0   ESE   0.50   7.0    SE   54.7   53.3   53.3   50.3  29.919  0.00  0.00     0     0.00      0     0.0  0.00   0.0   0.072   0.000   69.9    49   49.9   68.1   9.05  .0740    0.002   210    5    100.0   10 
12/05/19  7:10p   54.4   54.7   54.3    58   39.9   4.0   ESE   0.67   9.0     E   53.9   53.1   52.6   49.5  29.914  0.00  0.00     0     0.00      0     0.0  0.00   0.0   0.074   0.000   69.9    49   49.9   68.1   9.05  .0740    0.000   213    5    100.0   10 
12/05/19  7:20p   54.1   54.3   54.1    59   40.1   5.0   ESE   0.83  11.0     E   53.0   52.8   51.7   48.7  29.911  0.00  0.00     0     0.00      0     0.0  0.00   0.0   0.076   0.000   69.9    48   49.3   68.0   8.85  .0740    0.000   212    5    100.0   10 
12/05/19  7:30p   53.9   54.1   53.9    59   39.9   5.0   ESE   0.83  13.0    SE   52.8   52.7   51.6   48.5  29.912  0.00  0.00     0     0.00      0     0.0  0.00   0.0   0.077   0.000   69.9    48   49.3   68.0   8.85  .0740    0.000   212    5    100.0   10 
12/05/19  7:40p   53.8   53.9   53.8    59   39.8   4.0   ESE   0.67  12.0    SE   53.3   52.6   52.1   49.0  29.911  0.00  0.00     0     0.00      0     0.0  0.00   0.0   0.078   0.000   69.9    48   49.3   68.0   8.85  .0740    0.000   213    5    100.0   10 
12/05/19  7:50p   53.5   53.8   53.5    60   39.9   4.0   ESE   0.67  12.0   ESE   52.9   52.3   51.7   48.6  29.903  0.00  0.00     0     0.00      0     0.0  0.00   0.0   0.080   0.000   69.9    48   49.3   68.0   8.85  .0740    0.000   213    5    100.0   10 
12/05/19  8:00p   53.2   53.5   53.2    60   39.7   6.0     E   1.00  14.0     E   51.4   52.1   50.3   47.2  29.901  0.00  0.00     0     0.00      0     0.0  0.00   0.0   0.082   0.000   69.9    48   49.3   68.0   8.85  .0740    0.002   211    5    100.0   10 
12/05/19  8:10p   53.0   53.2   53.0    60   39.5   8.0   ESE   1.33  14.0   ESE   50.1   51.9   49.0   46.1  29.892  0.00  0.00     0     0.00      0     0.0  0.00   0.0   0.083   0.000   69.8    48   49.2   68.0   8.85  .0740    0.000   212    5    100.0   10 
12/05/19  8:20p   53.0   53.1   52.9    60   39.5  10.0     E   1.67  19.0     E   48.8   51.9   47.7   45.0  29.883  0.00  0.00     0     0.00      0     0.0  0.00   0.0   0.083   0.000   69.8    48   49.2   68.0   8.85  .0740    0.000   213    5    100.0   10 
12/05/19  8:30p   53.2   53.2   53.0    59   39.2  10.0     E   1.67  16.0    SE   49.0   52.0   47.8   45.1  29.885  0.00  0.00     0     0.00      0     0.0  0.00   0.0   0.082   0.000   69.7    48   49.1   67.9   8.86  .0740    0.000   209    5    100.0   10 
12/05/19  8:40p   53.4   53.4   53.2    59   39.4  11.0   ESE   1.83  23.0   ESE   48.7   52.2   47.5   44.9  29.882  0.00  0.00     0     0.00      0     0.0  0.00   0.0   0.081   0.000   69.6    48   49.0   67.8   8.86  .0740    0.000   213    5    100.0   10 
12/05/19  8:50p   53.1   53.4   53.1    58   38.7  10.0   ESE   1.67  16.0   ESE   48.9   51.9   47.7   45.0  29.881  0.00  0.00     0     0.00      0     0.0  0.00   0.0   0.083   0.000   69.6    48   49.0   67.8   8.86  .0740    0.000   213    5    100.0   10 
12/05/19  9:00p   53.0   53.1   53.0    58   38.6  10.0   ESE   1.67  16.0    SE   48.8   51.8   47.6   44.9  29.879  0.00  0.00     0     0.00      0     0.0  0.00   0.0   0.083   0.000   69.5    48   48.9   67.8   8.86  .0740    0.003   209    5    100.0   10 
12/05/19  9:10p   53.1   53.1   53.0    57   38.3  10.0   ESE   1.67  16.0   ESE   48.9   51.8   47.6   44.9  29.879  0.00  0.00     0     0.00      0     0.0  0.00   0.0   0.083   0.000   69.5    48   48.9   67.8   8.86  .0740    0.000   212    5    100.0   10 
12/05/19  9:20p   53.4   53.4   53.1    56   38.1  10.0   ESE   1.67  16.0   ESE   49.3   52.1   48.0   45.3  29.880  0.00  0.00     0     0.00      0     0.0  0.00   0.0   0.081   0.000   69.4    48   48.9   67.7   8.86  .0740    0.000   212    5    100.0   10 
12/05/19  9:30p   53.5   53.6   53.4    55   37.7  10.0   ESE   1.67  17.0   ESE   49.4   52.1   48.0   45.3  29.883  0.00  0.00     0     0.00      0     0.0  0.00   0.0   0.080   0.000   69.3    48   48.8   67.6   8.86  .0741    0.000   213    5    100.0   10 
12/05/19  9:40p   53.3   53.6   53.3    55   37.5   9.0   ESE   1.50  16.0   ESE   49.8   51.9   48.4   45.6  29.883  0.00  0.00     0     0.00      0     0.0  0.00   0.0   0.081   0.000   69.3    48   48.8   67.6   8.86  .0741    0.000   209    5    100.0   10 
12/05/19  9:50p   53.1   53.3   53.1    55   37.3  10.0   ESE   1.67  15.0   ESE   48.9   51.7   47.5   44.8  29.873  0.00  0.00     0     0.00      0     0.0  0.00   0.0   0.083   0.000   69.2    47   48.1   67.4   8.77  .0741    0.000   211    5    100.0   10 
12/05/19 10:00p   53.3   53.3   53.2    55   37.5  10.0   ESE   1.67  18.0     E   49.2   51.9   47.8   45.1  29.871  0.00  0.00     0     0.00      0     0.0  0.00   0.0   0.081   0.000   69.2    47   48.1   67.4   8.77  .0741    0.003   212    5    100.0   10 
12/05/19 10:10p   53.6   53.6   53.3    54   37.3  10.0   ESE   1.67  17.0    SE   49.5   52.1   48.0   45.3  29.868  0.00  0.00     0     0.00      0     0.0  0.00   0.0   0.079   0.000   69.1    47   48.0   67.4   8.77  .0741    0.000   211    5    100.0   10 
12/05/19 10:20p   53.6   53.7   53.6    54   37.3   9.0   ESE   1.50  15.0   ESE   50.1   52.1   48.6   45.8  29.876  0.00  0.00     0     0.00      0     0.0  0.00   0.0   0.079   0.000   69.1    47   48.0   67.4   8.77  .0741    0.000   212    5    100.0   10 
12/05/19 10:30p   53.6   53.7   53.6    54   37.3   6.0   ESE   1.00  13.0     E   51.9   52.1   50.4   47.3  29.881  0.00  0.00     0     0.00      0     0.0  0.00   0.0   0.079   0.000   69.0    47   47.9   67.3   8.77  .0741    0.000   210    5    100.0   10 
12/05/19 10:40p   53.6   53.6   53.5    54   37.3   4.0   ESE   0.67  10.0     S   53.0   52.1   51.5   48.4  29.889  0.00  0.00     0     0.00      0     0.0  0.00   0.0   0.079   0.000   69.0    47   47.9   67.3   8.77  .0741    0.000   213    5    100.0   10 
12/05/19 10:50p   53.5   53.6   53.5    54   37.3   3.0   SSW   0.50   9.0   SSE   53.5   52.0   52.0   48.9  29.894  0.00  0.00     0     0.00      0     0.0  0.00   0.0   0.080   0.000   69.0    47   47.9   67.3   8.77  .0742    0.000   211    5    100.0   10 
12/05/19 11:00p   53.6   53.6   53.5    54   37.3   4.0   ESE   0.67  12.0   SSE   53.0   52.1   51.5   48.4  29.892  0.00  0.00     0     0.00      0     0.0  0.00   0.0   0.079   0.000   69.0    47   47.9   67.3   8.77  .0742    0.003   211    5    100.0   10 
12/05/19 11:10p   53.9   53.9   53.5    53   37.1   5.0   ESE   0.83  13.0   ESE   52.8   52.4   51.3   48.2  29.890  0.00  0.00     0     0.00      0     0.0  0.00   0.0   0.077   0.000   68.9    47   47.8   67.2   8.77  .0742    0.000   214    5    100.0   10 
12/05/19 11:20p   54.1   54.1   53.9    53   37.3   4.0   SSW   0.67   9.0   ESE   53.6   52.6   52.1   49.0  29.898  0.00  0.00     0     0.00      0     0.0  0.00   0.0   0.076   0.000   68.9    47   47.8   67.2   8.77  .0742    0.000   211    5    100.0   10 
12/05/19 11:30p   53.6   54.2   53.6    55   37.8   4.0   SSW   0.67   9.0     S   53.0   52.2   51.6   48.5  29.905  0.00  0.00     0     0.00      0     0.0  0.00   0.0   0.079   0.000   68.8    47   47.7   67.1   8.77  .0742    0.000   211    5    100.0   10 
12/05/19 11:40p   53.3   53.6   53.3    57   38.4   2.0     S   0.33   5.0   SSW   53.3   52.0   52.0   48.9  29.906  0.00  0.00     0     0.00      0     0.0  0.00   0.0   0.081   0.000   68.8    47   47.7   67.1   8.77  .0742    0.000   212    5    100.0   10 
12/05/19 11:50p   52.8   53.3   52.8    57   38.0   1.0   SSE   0.17   3.0   SSE   52.8   51.6   51.6   48.5  29.908  0.00  0.00     0     0.00      0     0.0  0.00   0.0   0.085   0.000   68.7    47   47.6   67.0   8.78  .0742    0.000   209    5    100.0   10 
12/06/19 12:00a   51.9   52.8   51.9    57   37.1   1.0    SE   0.17   3.0   SSE   51.9   50.8   50.8   47.7  29.906  0.00  0.00     0     0.00      0     0.0  0.00   0.0   0.091   0.000   68.7    47   47.6   67.0   8.78  .0742    0.002   213    5    100.0   10 
12/06/19 12:10a   51.1   51.9   51.1    57   36.4   2.0    SE   0.33   4.0     S   51.1   50.1   50.1   46.9  29.906  0.00  0.00     0     0.00      0     0.0  0.00   0.0   0.097   0.000   68.7    47   47.6   67.0   8.78  .0742    0.000   211    5    100.0   10 
12/06/19 12:20a   51.0   51.1   50.9    59   37.2   1.0     S   0.17   4.0     S   51.0   50.1   50.1   47.0  29.904  0.00  0.00     0     0.00      0     0.0  0.00   0.0   0.097   0.000   68.6    47   47.6   66.9   8.78  .0743    0.000   208    5    100.0   10 
12/06/19 12:30a   51.1   51.1   50.9    59   37.3   1.0    SE   0.17   3.0    SE   51.1   50.1   50.1   47.0  29.899  0.00  0.00     0     0.00      0     0.0  0.00   0.0   0.097   0.000   68.6    47   47.6   66.9   8.78  .0742    0.000   212    5    100.0   10 
12/06/19 12:40a   51.3   51.3   51.0    59   37.4   2.0   ESE   0.33   4.0   ESE   51.3   50.3   50.3   47.2  29.897  0.00  0.00     0     0.00      0     0.0  0.00   0.0   0.095   0.000   68.5    47   47.5   66.8   8.78  .0742    0.000   213    5    100.0   10 
12/06/19 12:50a   51.9   51.9   51.3    59   38.0   4.0   ESE   0.67   9.0     E   51.1   50.9   50.1   47.0  29.893  0.00  0.00     0     0.00      0     0.0  0.00   0.0   0.091   0.000   68.4    47   47.4   66.8   8.78  .0743    0.000   211    5    100.0   10 
12/06/19  1:00a   52.3   52.3   51.9    57   37.5   4.0   ESE   0.67  10.0   SSE   51.5   51.1   50.3   47.2  29.890  0.00  0.00     0     0.00      0     0.0  0.00   0.0   0.088   0.000   68.4    47   47.4   66.8   8.78  .0742    0.002   213    5    100.0   10 
12/06/19  1:10a   52.6   52.6   52.3    56   37.3   5.0   ESE   0.83  10.0   ESE   51.3   51.3   50.0   46.9  29.885  0.00  0.00     0     0.00      0     0.0  0.00   0.0   0.086   0.000   68.4    47   47.4   66.8   8.78  .0742    0.000   212    5    100.0   10 
12/06/19  1:20a   52.5   52.6   52.5    56   37.2   4.0   ESE   0.67  10.0   ENE   51.8   51.3   50.6   47.5  29.882  0.00  0.00     0     0.00      0     0.0  0.00   0.0   0.087   0.000   68.3    47   47.3   66.7   8.78  .0742    0.000   212    5    100.0   10 
12/06/19  1:30a   52.3   52.5   52.3    56   37.1   4.0   ESE   0.67   9.0    SE   51.5   51.1   50.3   47.2  29.887  0.00  0.00     0     0.00      0     0.0  0.00   0.0   0.088   0.000   68.3    47   47.3   66.7   8.78  .0743    0.000   213    5    100.0   10 
12/06/19  1:40a   52.2   52.3   52.2    56   37.0   4.0   ESE   0.67  10.0    SE   51.4   51.0   50.2   47.0  29.887  0.00  0.00     0     0.00      0     0.0  0.00   0.0   0.089   0.000   68.3    47   47.3   66.7   8.78  .0743    0.000   212    5    100.0   10 
12/06/19  1:50a   52.4   52.4   52.2    56   37.2   5.0   ESE   0.83  12.0   ESE   51.0   51.2   49.8   46.7  29.883  0.00  0.00     0     0.00      0     0.0  0.00   0.0   0.087   0.000   68.2    47   47.2   66.6   8.79  .0743    0.000   211    5    100.0   10 
12/06/19  2:00a   52.8   52.8   52.4    55   37.1   5.0   ESE   0.83  11.0   ESE   51.5   51.4   50.1   47.0  29.887  0.00  0.00     0     0.00      0     0.0  0.00   0.0   0.085   0.000   68.2    47   47.2   66.6   8.79  .0743    0.002   212    5    100.0   10 
12/06/19  2:10a   52.9   52.9   52.8    54   36.7   4.0   ESE   0.67  12.0   ESE   52.2   51.5   50.8   47.6  29.891  0.00  0.00     0     0.00      0     0.0  0.00   0.0   0.084   0.000   68.1    47   47.1   66.5   8.79  .0743    0.000   212    5    100.0   10 
12/06/19  2:20a   52.7   52.9   52.7    53   36.0   3.0   SSE   0.50  11.0    SE   52.7   51.3   51.3   48.1  29.901  0.00  0.00     0     0.00      0     0.0  0.00   0.0   0.085   0.000   68.0    47   47.0   66.4   8.79  .0743    0.000   211    5    100.0   10 
12/06/19  2:30a   52.4   52.7   52.4    54   36.2   2.0    SE   0.33   5.0    SE   52.4   51.1   51.1   47.9  29.903  0.00  0.00     0     0.00      0     0.0  0.00   0.0   0.087   0.000   68.0    47   47.0   66.4   8.79  .0743    0.000   211    5    100.0   10 
12/06/19  2:40a   52.3   52.4   52.2    55   36.6   2.0   SSW   0.33   5.0   SSE   52.3   51.0   51.0   47.8  29.903  0.00  0.00     0     0.00      0     0.0  0.00   0.0   0.088   0.000   68.0    47   47.0   66.4   8.79  .0743    0.000   210    5    100.0   10 
12/06/19  2:50a   51.5   52.3   51.5    54   35.4   1.0   SSW   0.17   4.0   SSE   51.5   50.3   50.3   47.1  29.899  0.00  0.00     0     0.00      0     0.0  0.00   0.0   0.094   0.000   68.0    47   47.0   66.4   8.79  .0743    0.000   213    5    100.0   10 
12/06/19  3:00a   51.0   51.5   51.0    56   35.8   2.0   SSW   0.33   4.0     S   51.0   49.9   49.9   46.7  29.900  0.00  0.00     0     0.00      0     0.0  0.00   0.0   0.097   0.000   67.9    47   46.9   66.3   8.79  .0744    0.002   214    5    100.0   10 
12/06/19  3:10a   51.1   51.1   51.0    57   36.4   1.0   ESE   0.17   3.0   ESE   51.1   50.1   50.1   46.9  29.900  0.00  0.00     0     0.00      0     0.0  0.00   0.0   0.097   0.000   67.9    47   46.9   66.3   8.79  .0744    0.000   212    5    100.0   10 
12/06/19  3:20a   51.3   51.3   51.1    57   36.6   2.0    SE   0.33   8.0   ESE   51.3   50.3   50.3   47.1  29.896  0.00  0.00     0     0.00      0     0.0  0.00   0.0   0.095   0.000   67.9    47   46.9   66.3   8.79  .0743    0.000   210    5    100.0   10 
12/06/19  3:30a   51.7   51.7   51.3    57   36.9   3.0   ESE   0.50   9.0   SSE   51.6   50.6   50.5   47.3  29.889  0.00  0.00     0     0.00      0     0.0  0.00   0.0   0.092   0.000   67.8    47   46.8   66.2   8.79  .0743    0.000   213    5    100.0   10 
12/06/19  3:40a   52.2   52.2   51.7    56   37.0   3.0   ESE   0.50   8.0    SE   52.1   51.0   50.9   47.7  29.884  0.00  0.00     0     0.00      0     0.0  0.00   0.0   0.089   0.000   67.8    47   46.8   66.2   8.79  .0743    0.000   211    5    100.0   10 
12/06/19  3:50a   52.3   52.4   52.2    55   36.6   4.0   ESE   0.67   9.0     E   51.5   51.0   50.2   47.0  29.881  0.00  0.00     0     0.00      0     0.0  0.00   0.0   0.088   0.000   67.7    47   46.7   66.1   8.80  .0743    0.000   213    5    100.0   10 
12/06/19  4:00a   52.1   52.4   52.1    54   35.9   6.0   ESE   1.00  15.0   ESE   50.1   50.8   48.8   45.6  29.869  0.00  0.00     0     0.00      0     0.0  0.00   0.0   0.090   0.000   67.7    47   46.7   66.1   8.80  .0743    0.002   212    5    100.0   10 
12/06/19  4:10a   51.9   52.1   51.9    55   36.2   7.0   ESE   1.17  12.0    SE   49.5   50.7   48.3   45.1  29.860  0.00  0.00     0     0.00      0     0.0  0.00   0.0   0.091   0.000   67.7    47   46.7   66.1   8.80  .0743    0.000   210    5    100.0   10 
12/06/19  4:20a   51.5   51.9   51.5    55   35.9   8.0   ESE   1.33  15.0   ESE   48.3   50.3   47.1   44.1  29.854  0.00  0.00     0     0.00      0     0.0  0.00   0.0   0.094   0.000   67.7    47   46.7   66.1   8.80  .0743    0.000   210    5    100.0   10 
12/06/19  4:30a   51.4   51.5   51.4    56   36.2   8.0   ESE   1.33  16.0   ESE   48.2   50.3   47.1   44.1  29.848  0.00  0.00     0     0.00      0     0.0  0.00   0.0   0.094   0.000   67.8    47   46.8   66.2   8.79  .0742    0.000   213    5    100.0   10 
Email: AdamSPAM@StormwatchersRetreat.com (To send me email remove the word 'SPAM' from my email address.)